createdAt,value
2023-04-05T00:01:56.616Z,9.88
2023-04-05T00:04:25.277Z,9.87
2023-04-05T00:06:54.286Z,9.88
2023-04-05T00:09:22.644Z,9.90
2023-04-05T00:11:51.101Z,9.92
2023-04-05T00:14:19.455Z,9.94
2023-04-05T00:16:48.628Z,9.95
2023-04-05T00:19:17.488Z,9.94
2023-04-05T00:21:54.613Z,9.94
2023-04-05T00:24:23.261Z,9.91
2023-04-05T00:26:51.510Z,9.88
2023-04-05T00:29:19.795Z,9.84
2023-04-05T00:31:48.098Z,9.80
2023-04-05T00:34:16.850Z,9.75
2023-04-05T00:36:46.537Z,9.71
2023-04-05T00:39:14.952Z,9.70
2023-04-05T00:41:46.877Z,9.69
2023-04-05T00:44:17.764Z,9.69
2023-04-05T00:46:48.882Z,9.69
2023-04-05T00:49:17.918Z,9.69
2023-04-05T00:51:46.810Z,9.68
2023-04-05T00:54:15.982Z,9.68
2023-04-05T00:56:44.420Z,9.67
2023-04-05T00:59:12.719Z,9.65
2023-04-05T01:01:41.884Z,9.64
2023-04-05T01:04:11.938Z,9.62
2023-04-05T01:07:00.481Z,9.62
2023-04-05T01:09:38.748Z,9.63
2023-04-05T01:12:10.336Z,9.64
2023-04-05T01:14:50.862Z,9.67
2023-04-05T01:17:22.864Z,9.70
2023-04-05T01:19:54.510Z,9.72
2023-04-05T01:22:28.871Z,9.74
2023-04-05T01:25:06.912Z,9.77
2023-04-05T01:28:19.989Z,9.77
2023-04-05T01:30:54.543Z,9.77
2023-04-05T01:33:35.082Z,9.77
2023-04-05T01:36:39.935Z,9.75
2023-04-05T01:39:11.638Z,9.72
2023-04-05T01:41:40.798Z,9.69
2023-04-05T01:44:10.655Z,9.65
2023-04-05T01:46:39.364Z,9.62
2023-04-05T01:49:08.540Z,9.60
2023-04-05T01:51:42.237Z,9.58
2023-04-05T01:54:10.637Z,9.56
2023-04-05T01:56:38.977Z,9.53
2023-04-05T01:59:07.412Z,9.49
2023-04-05T02:01:36.274Z,9.45
2023-04-05T02:04:05.672Z,9.41
2023-04-05T02:06:42.392Z,9.37
2023-04-05T02:09:11.128Z,9.34
2023-04-05T02:11:39.561Z,9.31
2023-04-05T02:14:09.705Z,9.30
2023-04-05T02:16:38.596Z,9.30
2023-04-05T02:19:07.149Z,9.32
2023-04-05T02:21:37.952Z,9.36
2023-04-05T02:24:06.430Z,9.41
2023-04-05T02:26:34.708Z,9.45
2023-04-05T02:29:03.025Z,9.51
2023-04-05T02:31:31.361Z,9.57
2023-04-05T02:34:01.175Z,9.62
2023-04-05T02:36:30.003Z,9.66
2023-04-05T02:38:58.459Z,9.68
2023-04-05T02:41:29.862Z,9.69
2023-04-05T02:44:00.192Z,9.70
2023-04-05T02:46:30.660Z,9.71
2023-04-05T02:48:59.354Z,9.72
2023-04-05T02:51:28.762Z,9.74
2023-04-05T02:53:57.496Z,9.74
2023-04-05T02:56:26.807Z,9.74
2023-04-05T02:58:56.627Z,9.74
2023-04-05T03:01:26.911Z,9.73
2023-04-05T03:03:57.057Z,9.72
2023-04-05T03:06:26.769Z,9.70
2023-04-05T03:08:57.888Z,9.68
2023-04-05T03:11:26.677Z,9.68
2023-04-05T03:14:06.096Z,9.68
2023-04-05T03:16:41.757Z,9.65
2023-04-05T03:19:28.847Z,9.60
2023-04-05T03:22:02.622Z,9.56
2023-04-05T03:24:34.472Z,9.52
2023-04-05T03:27:06.278Z,9.50
2023-04-05T03:29:49.626Z,9.50
2023-04-05T03:32:18.896Z,9.53
2023-04-05T03:34:52.224Z,9.55
2023-04-05T03:37:21.103Z,9.58
2023-04-05T03:39:59.902Z,9.61
2023-04-05T03:42:28.171Z,9.66
2023-04-05T03:44:56.920Z,9.70
2023-04-05T03:47:28.154Z,9.77
2023-04-05T03:49:56.458Z,9.83
2023-04-05T03:52:24.773Z,9.88
2023-04-05T03:54:54.714Z,9.95
2023-04-05T03:57:24.622Z,10.02
2023-04-05T03:59:55.584Z,10.08
2023-04-05T04:02:25.115Z,10.13
2023-04-05T04:04:54.140Z,10.18
2023-04-05T04:07:22.420Z,10.23
2023-04-05T04:09:50.804Z,10.28
2023-04-05T04:12:19.084Z,10.34
2023-04-05T04:14:57.867Z,10.39
2023-04-05T04:17:39.932Z,10.43
2023-04-05T04:20:39.120Z,10.48
2023-04-05T04:23:18.831Z,10.52
2023-04-05T04:26:07.467Z,10.58
2023-04-05T04:28:56.937Z,10.62
2023-04-05T04:31:38.801Z,10.64
2023-04-05T04:34:26.714Z,10.66
2023-04-05T04:37:22.920Z,10.70
2023-04-05T04:40:09.118Z,10.75
2023-04-05T04:43:00.354Z,10.81
2023-04-05T04:45:55.027Z,10.88
2023-04-05T04:48:38.325Z,10.95
2023-04-05T04:51:33.932Z,11.04
2023-04-05T04:54:02.348Z,11.09
2023-04-05T04:56:31.592Z,11.14
2023-04-05T04:59:01.208Z,11.19
2023-04-05T05:01:34.299Z,11.22
2023-04-05T05:04:04.641Z,11.25
2023-04-05T05:06:37.890Z,11.29
2023-04-05T05:09:06.740Z,11.32
2023-04-05T05:11:41.130Z,11.39
2023-04-05T05:14:11.905Z,11.46
2023-04-05T05:16:40.248Z,11.52
2023-04-05T05:19:11.559Z,11.59
2023-04-05T05:21:47.198Z,11.66
2023-04-05T05:24:15.470Z,11.73
2023-04-05T05:26:43.897Z,11.80
2023-04-05T05:29:12.192Z,11.85
2023-04-05T05:31:43.775Z,11.91
2023-04-05T05:34:12.367Z,11.97
2023-04-05T05:36:44.014Z,12.03
2023-04-05T05:39:13.011Z,12.09
2023-04-05T05:41:41.260Z,12.16
2023-04-05T05:44:09.898Z,12.25
2023-04-05T05:46:40.755Z,12.33
2023-04-05T05:49:09.652Z,12.40
2023-04-05T05:51:37.946Z,12.49
2023-04-05T05:54:07.113Z,12.59
2023-04-05T05:56:35.372Z,12.68
2023-04-05T05:59:04.246Z,12.76
2023-04-05T06:01:34.608Z,12.84
2023-04-05T06:04:03.094Z,12.89
2023-04-05T06:06:35.110Z,12.94
2023-04-05T06:09:11.930Z,13.00
2023-04-05T06:11:53.146Z,13.06
2023-04-05T06:14:25.320Z,13.13
2023-04-05T06:16:53.887Z,13.21
2023-04-05T06:19:23.319Z,13.37
2023-04-05T06:21:51.620Z,13.56
2023-04-05T06:24:22.378Z,13.78
2023-04-05T06:26:52.142Z,13.99
2023-04-05T06:29:21.007Z,14.16
2023-04-05T06:31:49.577Z,14.30
2023-04-05T06:34:18.034Z,14.43
2023-04-05T06:36:47.816Z,14.51
2023-04-05T06:39:16.980Z,14.50
2023-04-05T06:41:45.626Z,14.45
2023-04-05T06:44:14.600Z,14.39
2023-04-05T06:46:42.997Z,14.32
2023-04-05T06:49:11.269Z,14.27
2023-04-05T06:51:39.834Z,14.23
2023-04-05T06:54:08.640Z,14.26
2023-04-05T06:56:39.298Z,14.39
2023-04-05T06:59:07.739Z,14.60
2023-04-05T07:01:37.574Z,14.84
2023-04-05T07:04:07.223Z,15.05
2023-04-05T07:06:39.244Z,15.16
2023-04-05T07:09:08.883Z,15.20
2023-04-05T07:11:40.111Z,15.23
2023-04-05T07:14:08.497Z,15.27
2023-04-05T07:16:41.766Z,15.34
2023-04-05T07:19:10.815Z,15.38
2023-04-05T07:21:39.117Z,15.42
2023-04-05T07:24:07.757Z,15.51
2023-04-05T07:26:37.608Z,15.62
2023-04-05T07:29:06.810Z,15.69
2023-04-05T07:31:35.669Z,15.77
2023-04-05T07:34:04.871Z,15.89
2023-04-05T07:36:35.907Z,16.04
2023-04-05T07:39:05.868Z,16.18
2023-04-05T07:41:38.349Z,16.23
2023-04-05T07:44:13.697Z,16.20
2023-04-05T07:46:47.566Z,16.15
2023-04-05T07:49:16.840Z,16.12
2023-04-05T07:51:48.282Z,16.12
2023-04-05T07:54:16.893Z,16.16
2023-04-05T07:56:52.413Z,16.24
2023-04-05T07:59:21.129Z,16.44
2023-04-05T08:01:49.889Z,16.67
2023-04-05T08:04:19.454Z,16.86
2023-04-05T08:06:48.187Z,16.93
2023-04-05T08:09:17.460Z,16.92
2023-04-05T08:11:48.958Z,16.91
2023-04-05T08:14:17.748Z,16.92
2023-04-05T08:16:46.295Z,16.93
2023-04-05T08:19:15.753Z,16.99
2023-04-05T08:21:44.281Z,17.04
2023-04-05T08:24:13.550Z,17.06
2023-04-05T08:26:43.546Z,17.06
2023-04-05T08:29:12.262Z,17.06
2023-04-05T08:31:41.025Z,17.06
2023-04-05T08:34:09.954Z,17.06
2023-04-05T08:36:38.257Z,17.08
2023-04-05T08:39:06.701Z,17.11
2023-04-05T08:41:37.581Z,17.12
2023-04-05T08:44:09.484Z,17.14
2023-04-05T08:46:38.484Z,17.18
2023-04-05T08:49:08.691Z,17.21
2023-04-05T08:51:41.057Z,17.26
2023-04-05T08:54:11.757Z,17.30
2023-04-05T08:56:42.533Z,17.35
2023-04-05T08:59:12.081Z,17.40
2023-04-05T09:01:45.473Z,17.46
2023-04-05T09:04:23.511Z,17.51
2023-04-05T09:06:55.870Z,17.60
2023-04-05T09:09:35.139Z,17.71
2023-04-05T09:12:08.195Z,17.78
2023-04-05T09:14:38.810Z,17.85
2023-04-05T09:17:10.319Z,17.85
2023-04-05T09:19:39.236Z,17.83
2023-04-05T09:22:08.840Z,17.86
2023-04-05T09:24:43.629Z,17.90
2023-04-05T09:27:14.436Z,17.94
2023-04-05T09:29:48.611Z,17.99
2023-04-05T09:32:19.485Z,18.07
2023-04-05T09:34:48.339Z,18.14
2023-04-05T09:37:23.712Z,18.15
2023-04-05T09:40:03.061Z,18.15
2023-04-05T09:42:47.386Z,18.14
2023-04-05T09:45:18.567Z,18.07
2023-04-05T09:48:03.152Z,17.97
2023-04-05T09:50:32.293Z,17.89
2023-04-05T09:53:16.422Z,17.81
2023-04-05T09:55:46.794Z,17.73
2023-04-05T09:58:22.474Z,17.66
2023-04-05T10:00:57.872Z,17.65
2023-04-05T10:03:32.816Z,17.66
2023-04-05T10:06:01.559Z,17.68
2023-04-05T10:08:33.493Z,17.78
2023-04-05T10:11:04.953Z,17.91
2023-04-05T10:13:34.731Z,18.06
2023-04-05T10:16:07.797Z,18.17
2023-04-05T10:18:44.596Z,18.23
2023-04-05T10:21:20.078Z,18.34
2023-04-05T10:23:59.177Z,18.47
2023-04-05T10:27:01.354Z,18.61
2023-04-05T10:29:50.957Z,18.79
2023-04-05T10:32:31.743Z,18.86
2023-04-05T10:35:16.404Z,18.86
2023-04-05T10:38:05.673Z,18.85
2023-04-05T10:40:36.469Z,18.85
2023-04-05T10:43:12.374Z,18.85
2023-04-05T10:45:43.055Z,18.87
2023-04-05T10:48:31.492Z,18.89
2023-04-05T10:51:04.650Z,18.92
2023-04-05T10:53:34.524Z,18.96
2023-04-05T10:56:04.250Z,19.02
2023-04-05T10:58:36.024Z,19.15
2023-04-05T11:01:05.232Z,19.27
2023-04-05T11:03:49.547Z,19.33
2023-04-05T11:06:38.422Z,19.29
2023-04-05T11:09:16.258Z,19.23
2023-04-05T11:11:46.917Z,19.20
2023-04-05T11:14:26.101Z,19.20
2023-04-05T11:16:59.975Z,19.21
2023-04-05T11:19:43.613Z,19.21
2023-04-05T11:22:15.187Z,19.22
2023-04-05T11:24:55.373Z,19.21
2023-04-05T11:27:31.155Z,19.20
2023-04-05T11:30:01.182Z,19.18
2023-04-05T11:32:44.570Z,19.16
2023-04-05T11:35:23.784Z,19.10
2023-04-05T11:38:01.337Z,19.05
2023-04-05T11:40:32.183Z,18.99
2023-04-05T11:43:08.055Z,18.93
2023-04-05T11:45:38.476Z,18.87
2023-04-05T11:48:12.175Z,18.81
2023-04-05T11:50:42.320Z,18.75
2023-04-05T11:53:17.957Z,18.73
2023-04-05T11:55:48.437Z,18.74
2023-04-05T11:58:21.629Z,18.73
2023-04-05T12:01:05.349Z,18.68
2023-04-05T12:03:37.574Z,18.60
2023-04-05T12:06:07.965Z,18.50
2023-04-05T12:08:50.298Z,18.40
2023-04-05T12:11:25.067Z,18.32
2023-04-05T12:13:58.873Z,18.23
2023-04-05T12:16:28.683Z,18.16
2023-04-05T12:18:59.695Z,18.11
2023-04-05T12:21:29.001Z,18.10
2023-04-05T12:23:59.158Z,18.11
2023-04-05T12:26:31.240Z,18.15
2023-04-05T12:29:04.562Z,18.21
2023-04-05T12:31:46.699Z,18.28
2023-04-05T12:34:15.426Z,18.38
2023-04-05T12:36:46.712Z,18.46
2023-04-05T12:39:17.458Z,18.53
2023-04-05T12:41:56.155Z,18.59
2023-04-05T12:44:31.704Z,18.64
2023-04-05T12:47:03.548Z,18.66
2023-04-05T12:49:38.288Z,18.64
2023-04-05T12:52:06.951Z,18.61
2023-04-05T12:54:35.748Z,18.58
2023-04-05T12:57:09.254Z,18.55
2023-04-05T12:59:38.956Z,18.50
2023-04-05T13:02:07.767Z,18.45
2023-04-05T13:04:36.095Z,18.40
2023-04-05T13:07:04.903Z,18.34
2023-04-05T13:09:35.509Z,18.24
2023-04-05T13:12:03.952Z,18.13
2023-04-05T13:14:34.044Z,18.05
2023-04-05T13:17:02.364Z,17.99
2023-04-05T13:19:31.155Z,17.92
2023-04-05T13:21:59.576Z,17.86
2023-04-05T13:24:27.916Z,17.80
2023-04-05T13:26:58.276Z,17.74
2023-04-05T13:29:26.594Z,17.69
2023-04-05T13:31:54.968Z,17.62
2023-04-05T13:34:23.970Z,17.56
2023-04-05T13:36:52.342Z,17.51
2023-04-05T13:39:21.969Z,17.47
2023-04-05T13:41:50.884Z,17.44
2023-04-05T13:44:19.480Z,17.41
2023-04-05T13:46:48.936Z,17.38
2023-04-05T13:49:17.281Z,17.36
2023-04-05T13:51:48.607Z,17.34
2023-04-05T13:54:18.088Z,17.33
2023-04-05T13:56:49.380Z,17.32
2023-04-05T13:59:19.705Z,17.31
2023-04-05T14:01:48.972Z,17.31
2023-04-05T14:04:17.848Z,17.31
2023-04-05T14:06:46.891Z,17.31
2023-04-05T14:09:15.690Z,17.28
2023-04-05T14:11:47.318Z,17.21
2023-04-05T14:14:15.773Z,17.12
2023-04-05T14:16:47.569Z,17.04
2023-04-05T14:19:18.543Z,16.96
2023-04-05T14:21:47.441Z,16.86
2023-04-05T14:24:22.038Z,16.76
2023-04-05T14:26:51.003Z,16.67
2023-04-05T14:29:19.789Z,16.58
2023-04-05T14:31:49.717Z,16.51
2023-04-05T14:34:19.332Z,16.43
2023-04-05T14:36:47.782Z,16.35
2023-04-05T14:39:16.888Z,16.25
2023-04-05T14:41:50.353Z,16.15
2023-04-05T14:44:18.731Z,16.01
2023-04-05T14:46:48.618Z,15.88
2023-04-05T14:49:18.723Z,15.74
2023-04-05T14:51:48.396Z,15.57
2023-04-05T14:54:17.133Z,15.36
2023-04-05T14:56:46.316Z,15.11
2023-04-05T14:59:14.678Z,14.85
2023-04-05T15:01:47.568Z,14.60
2023-04-05T15:04:15.912Z,14.39
2023-04-05T15:06:44.594Z,14.22
2023-04-05T15:09:12.871Z,14.08
2023-04-05T15:11:42.564Z,14.00
2023-04-05T15:14:18.241Z,13.93
2023-04-05T15:16:57.251Z,13.84
2023-04-05T15:19:26.055Z,13.78
2023-04-05T15:21:54.611Z,13.73
2023-04-05T15:24:23.024Z,13.69
2023-04-05T15:26:51.563Z,13.66
2023-04-05T15:29:20.026Z,13.62
2023-04-05T15:31:48.362Z,13.59
2023-04-05T15:34:17.457Z,13.55
2023-04-05T15:36:49.060Z,13.49
2023-04-05T15:39:17.923Z,13.46
2023-04-05T15:41:46.942Z,13.41
2023-04-05T15:44:15.625Z,13.37
2023-04-05T15:46:44.451Z,13.34
2023-04-05T15:49:14.157Z,13.31
2023-04-05T15:51:43.945Z,13.25
2023-04-05T15:54:18.799Z,13.21
2023-04-05T15:56:48.783Z,13.17
2023-04-05T15:59:17.455Z,13.14
2023-04-05T16:01:46.104Z,13.10
2023-04-05T16:04:14.993Z,13.05
2023-04-05T16:06:47.126Z,13.01
2023-04-05T16:09:15.494Z,12.97
2023-04-05T16:11:43.846Z,12.96
2023-04-05T16:14:13.350Z,12.95
2023-04-05T16:16:52.766Z,12.92
2023-04-05T16:19:24.882Z,12.89
2023-04-05T16:21:57.180Z,12.81
2023-04-05T16:24:27.837Z,12.70
2023-04-05T16:26:56.987Z,12.58
2023-04-05T16:29:25.882Z,12.49
2023-04-05T16:31:54.347Z,12.39
2023-04-05T16:34:23.305Z,12.33
2023-04-05T16:36:53.104Z,12.29
2023-04-05T16:39:21.436Z,12.25
2023-04-05T16:41:49.903Z,12.20
2023-04-05T16:44:18.879Z,12.15
2023-04-05T16:46:54.080Z,12.09
2023-04-05T16:49:22.781Z,12.03
2023-04-05T16:51:52.159Z,11.98
2023-04-05T16:54:21.657Z,11.90
2023-04-05T16:56:49.956Z,11.82
2023-04-05T16:59:18.309Z,11.76
2023-04-05T17:01:46.776Z,11.71
2023-04-05T17:04:16.830Z,11.65
2023-04-05T17:06:52.105Z,11.59
2023-04-05T17:09:23.294Z,11.56
2023-04-05T17:11:51.732Z,11.53
2023-04-05T17:14:24.346Z,11.51
2023-04-05T17:16:53.065Z,11.51
2023-04-05T17:19:21.508Z,11.50
2023-04-05T17:21:50.320Z,11.51
2023-04-05T17:24:18.728Z,11.52
2023-04-05T17:26:47.147Z,11.53
2023-04-05T17:29:17.775Z,11.53
2023-04-05T17:31:46.426Z,11.53
2023-04-05T17:34:16.837Z,11.53
2023-04-05T17:36:46.796Z,11.54
2023-04-05T17:39:16.521Z,11.55
2023-04-05T17:41:46.692Z,11.55
2023-04-05T17:44:15.847Z,11.54
2023-04-05T17:46:51.069Z,11.54
2023-04-05T17:49:22.581Z,11.52
2023-04-05T17:51:51.030Z,11.49
2023-04-05T17:54:19.430Z,11.46
2023-04-05T17:56:47.748Z,11.42
2023-04-05T17:59:16.191Z,11.39
2023-04-05T18:01:45.615Z,11.35
2023-04-05T18:04:15.188Z,11.32
2023-04-05T18:06:43.589Z,11.29
2023-04-05T18:09:12.647Z,11.27
2023-04-05T18:11:41.769Z,11.24
2023-04-05T18:14:10.488Z,11.21
2023-04-05T18:16:39.268Z,11.19
2023-04-05T18:19:08.573Z,11.19
2023-04-05T18:21:37.064Z,11.19
2023-04-05T18:24:07.402Z,11.18
2023-04-05T18:26:36.326Z,11.18
2023-04-05T18:29:05.426Z,11.16
2023-04-05T18:31:34.035Z,11.14
2023-04-05T18:34:06.148Z,11.14
2023-04-05T18:36:36.472Z,11.13
2023-04-05T18:39:05.462Z,11.12
2023-04-05T18:41:34.113Z,11.10
2023-04-05T18:44:02.485Z,11.07
2023-04-05T18:46:30.948Z,11.05
2023-04-05T18:48:59.785Z,11.02
2023-04-05T18:51:28.850Z,10.99
2023-04-05T18:53:58.837Z,10.97
2023-04-05T18:56:28.448Z,10.94
2023-04-05T18:58:56.956Z,10.92
2023-04-05T19:01:26.228Z,10.91
2023-04-05T19:03:54.665Z,10.89
2023-04-05T19:06:23.131Z,10.87
2023-04-05T19:08:52.947Z,10.85
2023-04-05T19:11:22.305Z,10.83
2023-04-05T19:13:51.037Z,10.82
2023-04-05T19:16:33.159Z,10.80
2023-04-05T19:19:06.731Z,10.80
2023-04-05T19:21:35.583Z,10.78
2023-04-05T19:24:04.744Z,10.76
2023-04-05T19:26:33.946Z,10.73
2023-04-05T19:29:03.727Z,10.71
2023-04-05T19:31:32.562Z,10.71
2023-04-05T19:34:01.645Z,10.71
2023-04-05T19:36:30.342Z,10.73
2023-04-05T19:38:58.738Z,10.75
2023-04-05T19:44:58.262Z,10.84
2023-04-05T19:47:26.926Z,10.88
2023-04-05T19:50:00.702Z,10.92
2023-04-05T19:52:48.115Z,10.97
2023-04-05T19:55:37.636Z,11.02
2023-04-05T19:58:10.601Z,11.07
2023-04-05T20:00:42.383Z,11.10
2023-04-05T20:03:32.969Z,11.12
2023-04-05T20:06:11.342Z,11.12
2023-04-05T20:08:43.112Z,11.11
2023-04-05T20:11:17.640Z,11.08
2023-04-05T20:13:56.591Z,11.03
2023-04-05T20:16:31.244Z,10.97
2023-04-05T20:19:06.951Z,10.92
2023-04-05T20:21:41.436Z,10.87
2023-04-05T20:24:14.636Z,10.82
2023-04-05T20:26:46.208Z,10.78
2023-04-05T20:29:17.231Z,10.74
2023-04-05T20:31:46.957Z,10.73
2023-04-05T20:34:19.988Z,10.71
2023-04-05T20:36:51.987Z,10.69
2023-04-05T20:39:23.729Z,10.69
2023-04-05T20:41:53.134Z,10.67
2023-04-05T20:44:25.310Z,10.65
2023-04-05T20:46:56.589Z,10.62
2023-04-05T20:49:28.300Z,10.59
2023-04-05T20:52:00.091Z,10.58
2023-04-05T20:54:28.469Z,10.56
2023-04-05T20:56:58.505Z,10.54
2023-04-05T20:59:27.556Z,10.53
2023-04-05T21:01:56.320Z,10.50
2023-04-05T21:04:25.031Z,10.46
2023-04-05T21:06:54.031Z,10.42
2023-04-05T21:09:23.720Z,10.39
2023-04-05T21:11:54.267Z,10.37
2023-04-05T21:14:22.512Z,10.36
2023-04-05T21:16:50.988Z,10.37
2023-04-05T21:19:19.390Z,10.38
2023-04-05T21:21:47.689Z,10.40
2023-04-05T21:24:16.217Z,10.43
2023-04-05T21:26:44.566Z,10.45
2023-04-05T21:29:14.647Z,10.47
2023-04-05T21:31:43.086Z,10.50
2023-04-05T21:34:11.582Z,10.52
2023-04-05T21:36:40.828Z,10.57
2023-04-05T21:39:10.014Z,10.61
2023-04-05T21:41:38.573Z,10.65
2023-04-05T21:44:09.261Z,10.68
2023-04-05T21:46:38.072Z,10.69
2023-04-05T21:49:06.607Z,10.72
2023-04-05T21:51:35.531Z,10.75
2023-04-05T21:54:03.840Z,10.77
2023-04-05T21:56:32.640Z,10.80
2023-04-05T21:59:01.276Z,10.85
2023-04-05T22:01:29.785Z,10.89
2023-04-05T22:03:59.192Z,10.92
2023-04-05T22:06:27.595Z,10.96
2023-04-05T22:08:56.270Z,11.00
2023-04-05T22:11:25.158Z,11.03
2023-04-05T22:13:55.038Z,11.08
2023-04-05T22:16:23.444Z,11.11
2023-04-05T22:18:52.097Z,11.14
2023-04-05T22:21:20.690Z,11.17
2023-04-05T22:23:49.228Z,11.18
2023-04-05T22:26:17.542Z,11.19
2023-04-05T22:28:46.339Z,11.18
2023-04-05T22:31:15.070Z,11.17
2023-04-05T22:33:45.748Z,11.14
2023-04-05T22:36:14.182Z,11.13
2023-04-05T22:38:43.940Z,11.10
2023-04-05T22:41:13.088Z,11.08
2023-04-05T22:43:42.193Z,11.07
2023-04-05T22:46:10.750Z,11.06
2023-04-05T22:48:39.030Z,11.06
2023-04-05T22:51:08.571Z,11.06
2023-04-05T22:53:37.181Z,11.06
2023-04-05T22:56:11.292Z,11.06
2023-04-05T22:58:41.100Z,11.04
2023-04-05T23:01:11.759Z,11.03
2023-04-05T23:03:40.190Z,11.02
2023-04-05T23:06:08.552Z,11.00
2023-04-05T23:08:37.158Z,10.99
2023-04-05T23:11:10.164Z,10.98
2023-04-05T23:13:39.642Z,10.98
2023-04-05T23:16:08.076Z,10.97
2023-04-05T23:18:39.873Z,10.97
2023-04-05T23:21:08.974Z,10.98
2023-04-05T23:23:37.622Z,11.00
2023-04-05T23:26:06.320Z,11.00
2023-04-05T23:28:34.946Z,11.00
2023-04-05T23:31:04.691Z,11.00
2023-04-05T23:33:33.927Z,11.00
2023-04-05T23:36:02.971Z,11.00
2023-04-05T23:38:31.841Z,11.00
2023-04-05T23:41:00.155Z,10.99
2023-04-05T23:43:28.881Z,10.98
2023-04-05T23:45:57.422Z,10.97
2023-04-05T23:48:29.229Z,10.96
2023-04-05T23:50:57.885Z,10.96
2023-04-05T23:53:26.493Z,10.95
2023-04-05T23:55:57.027Z,10.94
2023-04-05T23:58:25.791Z,10.95
